KCKM

Fletcher Field Airport

Clarksdale, Mississippi, USA
METAR KCKM 280055Z AUTO 00000KT 10SM CLR 27/27 A2985 RMK A01
Observed Flight Rules
May-28 @ 00:55 UTC (23 minutes ago) Visual Flight Rules
Visibility Clouds
10 miles
  • Clear skies
Temperatures Readings
Current 27°C / 81°F
Dewpoint 27°C / 81°F
Humidity 100%
Altimeter 29.85" Hg
Pressure 1011 hPa
Elevation 53
METAR KCKM 280055Z AUTO 00000KT 10SM CLR 27/27 A2985 RMK A01
Observed Flight Rules
May-28 @ 00:55 UTC
(23 minutes ago)
VFR
Clouds
  • Clear skies
Temperature Dewpoint
27°C / 81°F 27°C / 81°F
Humidity Altimeter Pressure
100% 29.85" Hg 1011 hPa